Time;durP1;ratioP1;P1;durP2;ratioP2;P2;SDS_P1;SDS_P2;PMS_P1;PMS_P2;Temp;Humidity;BMP_temperature;BMP_pressure;BME280_temperature;BME280_humidity;BME280_pressure;Samples;Min_cycle;Max_cycle;Signal;HPM_P1;HPM_P2
2022/04/14 00:02:21;;;;;;;16.27;8.07;;;14.70;99.90;;;;;;5050130;28;20423;-71
2022/04/14 00:04:47;;;;;;;17.50;9.20;;;14.60;99.90;;;;;;5030264;28;20429;-71
2022/04/14 00:07:16;;;;;;;14.00;7.47;;;14.60;99.90;;;;;;5047775;28;20431;-71
2022/04/14 00:09:42;;;;;;;20.00;9.30;;;14.60;99.90;;;;;;5050367;28;20504;-71
2022/04/14 00:12:09;;;;;;;14.53;8.53;;;14.50;99.90;;;;;;5050717;28;20527;-71
2022/04/14 00:14:36;;;;;;;15.30;8.13;;;14.50;99.90;;;;;;5049986;28;20423;-71
2022/04/14 00:17:03;;;;;;;16.83;9.83;;;14.40;99.90;;;;;;5048606;28;20440;-71
2022/04/14 00:19:29;;;;;;;26.20;9.50;;;14.40;99.90;;;;;;5036189;28;20455;-71
2022/04/14 00:21:56;;;;;;;15.90;9.20;;;14.30;99.90;;;;;;5036400;28;20497;-71
2022/04/14 00:24:24;;;;;;;22.57;9.00;;;14.30;99.90;;;;;;5051213;28;20866;-71
2022/04/14 00:26:51;;;;;;;14.40;8.13;;;14.20;99.90;;;;;;5050312;28;20574;-71
2022/04/14 00:29:17;;;;;;;20.57;9.67;;;14.20;99.90;;;;;;5050355;28;20480;-71
2022/04/14 00:31:44;;;;;;;15.00;9.30;;;14.10;99.90;;;;;;5054604;28;20488;-71
2022/04/14 00:34:11;;;;;;;20.20;10.03;;;14.10;99.90;;;;;;5039199;28;20459;-71
2022/04/14 00:36:37;;;;;;;19.53;10.10;;;14.10;99.90;;;;;;5036926;28;20453;-71
2022/04/14 00:39:04;;;;;;;14.60;9.03;;;14.00;99.90;;;;;;5040413;28;20522;-71
2022/04/14 00:41:32;;;;;;;14.90;9.13;;;14.00;99.90;;;;;;5048963;28;20509;-71
2022/04/14 00:43:58;;;;;;;14.37;10.00;;;14.00;99.90;;;;;;5047421;28;20641;-71
2022/04/14 00:46:25;;;;;;;13.50;9.63;;;14.00;99.90;;;;;;5034612;28;21145;-71
2022/04/14 00:48:53;;;;;;;15.43;10.10;;;13.90;99.90;;;;;;5036564;28;20472;-71
2022/04/14 00:51:20;;;;;;;20.73;10.03;;;13.90;99.90;;;;;;5034338;28;20477;-71
2022/04/14 00:53:47;;;;;;;15.63;10.37;;;13.90;99.90;;;;;;5034106;28;20523;-71
2022/04/14 00:56:14;;;;;;;19.17;9.80;;;13.90;99.90;;;;;;5050217;28;20513;-71
2022/04/14 00:58:42;;;;;;;12.30;9.73;;;13.80;99.90;;;;;;5048285;28;20484;-71
2022/04/14 01:01:09;;;;;;;14.20;9.57;;;13.80;99.90;;;;;;5053957;28;20452;-72
2022/04/14 01:03:37;;;;;;;20.27;10.27;;;13.80;99.90;;;;;;5052811;28;20456;-71
2022/04/14 01:06:04;;;;;;;12.77;9.67;;;13.80;99.90;;;;;;5053435;28;20510;-71
2022/04/14 01:08:32;;;;;;;16.23;10.43;;;13.80;99.90;;;;;;5036282;28;20468;-71
2022/04/14 01:11:00;;;;;;;13.23;10.07;;;13.80;99.90;;;;;;5053624;28;21028;-71
2022/04/14 01:13:27;;;;;;;16.17;10.33;;;13.80;99.90;;;;;;5053805;28;21012;-71
2022/04/14 01:15:59;;;;;;;18.80;10.30;;;13.80;99.90;;;;;;5044604;28;20453;-71
2022/04/14 01:18:27;;;;;;;14.97;9.80;;;13.80;99.90;;;;;;5050822;28;20456;-71
2022/04/14 01:20:54;;;;;;;13.80;9.80;;;13.70;99.90;;;;;;5049467;28;20484;-71
2022/04/14 01:23:33;;;;;;;17.90;10.53;;;13.70;99.90;;;;;;5034010;28;20445;-71
2022/04/14 01:26:00;;;;;;;17.00;10.70;;;13.70;99.90;;;;;;5037677;28;20948;-71
2022/04/14 01:28:27;;;;;;;16.40;11.23;;;13.70;99.90;;;;;;5053035;28;20452;-71
2022/04/14 01:30:53;;;;;;;17.83;11.10;;;13.70;99.90;;;;;;5052758;28;20502;-71
2022/04/14 01:33:20;;;;;;;18.23;11.60;;;13.60;99.90;;;;;;5037903;28;20453;-71
2022/04/14 01:35:46;;;;;;;19.50;11.30;;;13.60;99.90;;;;;;5040511;28;20945;-71
2022/04/14 01:38:13;;;;;;;13.63;10.20;;;13.60;99.90;;;;;;5053703;28;20452;-71
2022/04/14 01:40:41;;;;;;;20.90;12.30;;;13.60;99.90;;;;;;5034357;28;20461;-71
2022/04/14 01:43:08;;;;;;;15.57;11.90;;;13.50;99.90;;;;;;5033456;28;21102;-71
2022/04/14 01:45:35;;;;;;;17.50;11.73;;;13.50;99.90;;;;;;5033524;28;20454;-71
2022/04/14 01:48:01;;;;;;;18.73;13.07;;;13.50;99.90;;;;;;5034453;28;20515;-71
2022/04/14 01:50:28;;;;;;;20.03;11.80;;;13.50;99.90;;;;;;5033890;28;20527;-71
2022/04/14 01:52:55;;;;;;;20.57;12.37;;;13.50;99.90;;;;;;5033568;28;20488;-71
2022/04/14 01:55:21;;;;;;;17.73;11.80;;;13.40;99.90;;;;;;5044320;28;20460;-71
2022/04/14 01:57:49;;;;;;;24.40;12.60;;;13.40;99.90;;;;;;5034443;28;20445;-71
2022/04/14 02:00:17;;;;;;;14.90;10.90;;;13.40;99.90;;;;;;5033249;28;20473;-71
2022/04/14 02:02:43;;;;;;;18.97;12.47;;;13.40;99.90;;;;;;5036737;28;20454;-71
2022/04/14 02:05:10;;;;;;;15.27;12.50;;;13.30;99.90;;;;;;5037229;28;20503;-71
2022/04/14 02:07:37;;;;;;;19.87;11.50;;;13.30;99.90;;;;;;5033238;28;20461;-71
2022/04/14 02:10:04;;;;;;;17.20;11.90;;;13.30;99.90;;;;;;5032922;28;20827;-71
2022/04/14 02:12:31;;;;;;;23.23;11.77;;;13.30;99.90;;;;;;5050131;28;20537;-71
2022/04/14 02:14:59;;;;;;;18.00;12.20;;;13.30;99.90;;;;;;5052338;28;20453;-71
2022/04/14 02:17:26;;;;;;;24.50;13.00;;;13.30;99.90;;;;;;5046599;28;20963;-71
2022/04/14 02:19:52;;;;;;;22.13;12.50;;;13.30;99.90;;;;;;5039263;28;20500;-73
2022/04/14 02:22:19;;;;;;;33.77;13.40;;;13.30;99.90;;;;;;5048720;28;20530;-71
2022/04/14 02:24:46;;;;;;;19.30;12.77;;;13.30;99.90;;;;;;5053131;28;20452;-71
2022/04/14 02:27:12;;;;;;;17.63;13.20;;;13.20;99.90;;;;;;5038701;28;20457;-71
2022/04/14 02:29:40;;;;;;;24.60;13.37;;;13.20;99.90;;;;;;5033652;28;20531;-71
2022/04/14 02:32:09;;;;;;;20.77;13.33;;;13.20;99.90;;;;;;5032531;28;20454;-71
2022/04/14 02:34:35;;;;;;;21.70;15.07;;;13.20;99.90;;;;;;5050914;28;20453;-71
2022/04/14 02:37:02;;;;;;;19.17;15.40;;;13.10;99.90;;;;;;5052350;28;20501;-71
2022/04/14 02:39:29;;;;;;;25.33;15.97;;;13.10;99.90;;;;;;5034646;28;20993;-71
2022/04/14 02:41:55;;;;;;;25.90;18.00;;;13.10;99.90;;;;;;5039394;28;20519;-71
2022/04/14 02:44:22;;;;;;;30.57;19.10;;;13.10;99.90;;;;;;5033220;28;20535;-71
2022/04/14 02:46:48;;;;;;;23.30;17.83;;;13.10;99.90;;;;;;5040344;28;20510;-71
2022/04/14 02:49:16;;;;;;;29.63;19.10;;;13.10;99.90;;;;;;5051386;28;20468;-71
2022/04/14 02:51:43;;;;;;;32.13;19.20;;;13.10;99.90;;;;;;5051989;28;20487;-71
2022/04/14 02:54:10;;;;;;;29.20;19.10;;;13.10;99.90;;;;;;5044333;28;20936;-71
2022/04/14 02:56:36;;;;;;;27.00;18.57;;;13.10;99.90;;;;;;5032220;28;20507;-71
2022/04/14 02:59:03;;;;;;;28.00;19.97;;;13.10;99.90;;;;;;5038927;28;20570;-71
2022/04/14 03:01:30;;;;;;;31.33;21.90;;;13.10;99.90;;;;;;5033702;28;20530;-71
2022/04/14 03:03:57;;;;;;;38.07;22.30;;;13.10;99.90;;;;;;5031597;28;20519;-71
2022/04/14 03:06:25;;;;;;;40.93;22.20;;;13.10;99.90;;;;;;5031402;28;20483;-71
2022/04/14 03:08:51;;;;;;;41.50;21.90;;;13.10;99.90;;;;;;5031822;28;20977;-71
2022/04/14 03:11:18;;;;;;;34.80;20.63;;;13.10;99.90;;;;;;5032640;28;20453;-71
2022/04/14 03:13:45;;;;;;;30.77;21.00;;;13.10;99.90;;;;;;5049647;28;20543;-71
2022/04/14 03:16:13;;;;;;;35.03;22.20;;;13.20;99.90;;;;;;5050892;28;21211;-71
2022/04/14 03:18:40;;;;;;;31.37;21.47;;;13.20;99.90;;;;;;5042000;28;20473;-71
2022/04/14 03:21:06;;;;;;;30.77;21.70;;;13.20;99.90;;;;;;5031962;28;20523;-71
2022/04/14 03:23:34;;;;;;;32.80;22.27;;;13.10;99.90;;;;;;5031586;28;20454;-71
2022/04/14 03:26:02;;;;;;;33.17;22.27;;;13.10;99.90;;;;;;5035357;28;20510;-71
2022/04/14 03:28:29;;;;;;;31.93;23.13;;;13.10;99.90;;;;;;5045661;28;20464;-71
2022/04/14 03:30:56;;;;;;;35.03;22.13;;;13.10;99.90;;;;;;5040197;28;20506;-71
2022/04/14 03:33:22;;;;;;;34.63;23.47;;;13.10;99.90;;;;;;5050083;28;20480;-71
2022/04/14 03:35:49;;;;;;;33.50;21.63;;;13.10;99.90;;;;;;5051599;28;20448;-71
2022/04/14 03:38:16;;;;;;;37.33;23.77;;;13.10;99.90;;;;;;5050936;28;20460;-71
2022/04/14 03:40:44;;;;;;;40.23;23.10;;;13.00;99.90;;;;;;5032166;28;20457;-71
2022/04/14 03:43:10;;;;;;;40.20;24.73;;;13.00;99.90;;;;;;5031012;28;20457;-71
2022/04/14 03:45:37;;;;;;;33.60;23.83;;;13.00;99.90;;;;;;5032246;28;20511;-71
2022/04/14 03:48:04;;;;;;;34.30;23.07;;;13.00;99.90;;;;;;5046008;28;20510;-71
2022/04/14 03:50:31;;;;;;;35.10;23.60;;;12.90;99.90;;;;;;5051149;28;20869;-71
2022/04/14 03:52:57;;;;;;;35.37;23.77;;;12.90;99.90;;;;;;5050354;28;20472;-71
2022/04/14 03:55:24;;;;;;;40.63;24.90;;;12.90;99.90;;;;;;5051273;28;20449;-71
2022/04/14 03:57:52;;;;;;;38.70;24.43;;;12.90;99.90;;;;;;5050626;28;20498;-71
2022/04/14 04:00:19;;;;;;;41.23;24.60;;;12.90;99.90;;;;;;5039474;28;20473;-71
2022/04/14 04:02:45;;;;;;;36.27;24.00;;;12.90;99.90;;;;;;5033920;28;20964;-71
2022/04/14 04:05:12;;;;;;;42.40;23.73;;;12.80;99.90;;;;;;5049837;28;20486;-71
2022/04/14 04:07:39;;;;;;;37.13;25.20;;;12.80;99.90;;;;;;5051049;28;20952;-71
2022/04/14 04:10:07;;;;;;;39.63;25.50;;;12.80;99.90;;;;;;5050414;28;20530;-71
2022/04/14 04:12:33;;;;;;;37.40;25.87;;;12.70;99.90;;;;;;5050816;28;20480;-71
2022/04/14 04:15:01;;;;;;;35.87;24.23;;;12.70;99.90;;;;;;5035421;28;20453;-72
2022/04/14 04:17:28;;;;;;;39.00;22.80;;;12.60;99.90;;;;;;5033914;28;20456;-71
2022/04/14 04:19:55;;;;;;;34.50;23.00;;;12.60;99.90;;;;;;5050278;28;20473;-71
2022/04/14 04:22:21;;;;;;;38.23;24.40;;;12.60;99.90;;;;;;5051027;28;21047;-71
2022/04/14 04:24:48;;;;;;;38.93;24.10;;;12.50;99.90;;;;;;5047230;28;20449;-71
2022/04/14 04:27:15;;;;;;;41.20;24.90;;;12.60;99.90;;;;;;5039032;28;20468;-71
2022/04/14 04:29:41;;;;;;;38.57;24.30;;;12.50;99.90;;;;;;5030905;28;20550;-71
2022/04/14 04:32:09;;;;;;;38.23;24.37;;;12.50;99.90;;;;;;5050166;28;20515;-71
2022/04/14 04:34:36;;;;;;;39.57;25.27;;;12.50;99.90;;;;;;5050163;28;20444;-71
2022/04/14 04:37:03;;;;;;;35.67;24.23;;;12.50;99.90;;;;;;5050573;28;20449;-71
2022/04/14 04:39:30;;;;;;;44.77;28.10;;;12.50;99.90;;;;;;5050798;28;20531;-71
2022/04/14 04:41:56;;;;;;;37.27;25.00;;;12.50;99.90;;;;;;5038535;28;20873;-71
2022/04/14 04:44:23;;;;;;;41.70;23.90;;;12.50;99.90;;;;;;5031620;28;20950;-71
2022/04/14 04:46:50;;;;;;;38.37;25.60;;;12.50;99.90;;;;;;5030705;28;20457;-71
2022/04/14 04:49:18;;;;;;;44.60;28.10;;;12.50;99.90;;;;;;5030393;28;20516;-71
2022/04/14 04:51:44;;;;;;;44.40;25.93;;;12.50;99.90;;;;;;5040457;28;21023;-70
2022/04/14 04:54:11;;;;;;;45.13;26.63;;;12.50;99.90;;;;;;5050123;28;20543;-71
2022/04/14 04:56:37;;;;;;;41.23;25.77;;;12.50;99.90;;;;;;5034843;28;20491;-71
2022/04/14 04:59:04;;;;;;;43.90;25.70;;;12.50;99.90;;;;;;5041554;28;20523;-71
2022/04/14 05:01:31;;;;;;;44.77;25.13;;;12.50;99.90;;;;;;5037715;28;20944;-71
2022/04/14 05:03:57;;;;;;;42.20;25.67;;;12.50;99.90;;;;;;5050048;28;20808;-71
2022/04/14 05:06:25;;;;;;;39.03;24.57;;;12.50;99.90;;;;;;5053616;28;20477;-71
2022/04/14 05:08:52;;;;;;;39.27;24.90;;;12.50;99.90;;;;;;5050250;28;20469;-71
2022/04/14 05:11:19;;;;;;;37.23;21.40;;;12.50;99.90;;;;;;5033850;28;20461;-71
2022/04/14 05:13:45;;;;;;;37.43;21.73;;;12.50;99.90;;;;;;5033110;28;20554;-71
2022/04/14 05:16:12;;;;;;;43.13;22.27;;;12.60;99.90;;;;;;5040897;28;20608;-71
2022/04/14 05:18:39;;;;;;;34.87;20.50;;;12.60;99.90;;;;;;5039057;28;20526;-70
2022/04/14 05:21:05;;;;;;;32.80;20.90;;;12.60;99.90;;;;;;5053508;28;20459;-71
2022/04/14 05:23:33;;;;;;;33.53;20.37;;;12.70;99.90;;;;;;5044404;28;20449;-71
2022/04/14 05:26:00;;;;;;;29.90;17.57;;;12.70;99.90;;;;;;5037785;28;20851;-71
2022/04/14 05:28:27;;;;;;;27.33;17.53;;;12.80;99.90;;;;;;5052416;28;20452;-71
2022/04/14 05:30:54;;;;;;;28.83;18.07;;;12.80;99.90;;;;;;5033708;28;20465;-71
2022/04/14 05:33:21;;;;;;;30.90;17.90;;;12.90;99.90;;;;;;5034894;28;20516;-72
2022/04/14 05:35:47;;;;;;;23.93;16.47;;;12.90;99.90;;;;;;5033286;28;20942;-73
2022/04/14 05:38:14;;;;;;;24.70;16.20;;;13.00;99.90;;;;;;5033574;28;20461;-73
2022/04/14 05:40:45;;;;;;;23.37;15.63;;;13.00;99.90;;;;;;5031687;28;20461;-73
2022/04/14 05:43:16;;;;;;;39.10;16.93;;;13.10;99.90;;;;;;5027761;28;20453;-73
2022/04/14 05:45:44;;;;;;;25.70;16.10;;;13.10;99.90;;;;;;5048014;28;20467;-73
2022/04/14 05:48:13;;;;;;;29.10;15.73;;;13.20;99.90;;;;;;5044733;28;20544;-72
2022/04/14 05:50:40;;;;;;;27.13;15.20;;;13.30;99.90;;;;;;5034476;28;20449;-72
2022/04/14 05:53:06;;;;;;;25.33;15.33;;;13.30;99.90;;;;;;5052660;28;20479;-72
2022/04/14 05:55:33;;;;;;;22.97;15.80;;;13.30;99.90;;;;;;5043269;28;20503;-73
2022/04/14 05:58:01;;;;;;;27.70;15.00;;;13.40;99.90;;;;;;5034204;28;20453;-72
2022/04/14 06:00:28;;;;;;;32.70;14.00;;;13.40;99.90;;;;;;5035315;28;20523;-73
2022/04/14 06:02:54;;;;;;;27.10;14.40;;;13.40;99.90;;;;;;5032599;28;20458;-73
2022/04/14 06:05:21;;;;;;;29.13;15.03;;;13.50;99.90;;;;;;5043913;28;20452;-73
2022/04/14 06:07:47;;;;;;;21.20;14.77;;;13.50;99.90;;;;;;5033456;28;20449;-73
2022/04/14 06:10:15;;;;;;;29.60;14.70;;;13.50;99.90;;;;;;5032275;28;20465;-73
2022/04/14 06:12:42;;;;;;;29.30;14.90;;;13.60;99.90;;;;;;5039700;28;20599;-73
2022/04/14 06:15:11;;;;;;;26.37;15.10;;;13.60;99.90;;;;;;5050862;28;20839;-73
2022/04/14 06:17:37;;;;;;;19.87;13.77;;;13.60;99.90;;;;;;5042387;28;20457;-73
2022/04/14 06:20:05;;;;;;;24.60;15.17;;;13.60;99.90;;;;;;5040802;28;20506;-73
2022/04/14 06:22:36;;;;;;;25.60;14.90;;;13.60;99.90;;;;;;5051487;28;20457;-73
2022/04/14 06:25:03;;;;;;;26.43;15.00;;;13.60;99.90;;;;;;5052266;28;20870;-74
2022/04/14 06:27:30;;;;;;;22.23;15.10;;;13.60;99.90;;;;;;5035946;28;20449;-73
2022/04/14 06:29:56;;;;;;;27.70;15.43;;;13.60;99.90;;;;;;5042133;28;20472;-73
2022/04/14 06:32:24;;;;;;;22.00;13.00;;;13.60;99.90;;;;;;5048392;28;20453;-73
2022/04/14 06:34:51;;;;;;;23.50;13.70;;;13.60;99.90;;;;;;5051088;28;20445;-74
2022/04/14 06:37:18;;;;;;;18.50;12.20;;;13.60;99.90;;;;;;5051373;28;20504;-73
2022/04/14 06:39:44;;;;;;;22.00;12.17;;;13.60;99.90;;;;;;5051366;28;20538;-73
2022/04/14 06:42:11;;;;;;;19.30;12.60;;;13.60;99.90;;;;;;5045415;28;20444;-74
2022/04/14 06:44:37;;;;;;;23.20;12.00;;;13.70;99.90;;;;;;5043438;28;20518;-73
2022/04/14 06:47:05;;;;;;;22.50;12.87;;;13.80;99.90;;;;;;5032056;28;21008;-73
2022/04/14 06:49:33;;;;;;;18.93;12.83;;;13.80;99.90;;;;;;5048607;28;20518;-73
2022/04/14 06:52:01;;;;;;;25.40;13.67;;;13.90;99.90;;;;;;5034792;28;20481;-73
2022/04/14 06:54:28;;;;;;;19.90;12.87;;;13.90;99.90;;;;;;5041302;28;20537;-72
2022/04/14 06:56:55;;;;;;;19.70;13.30;;;14.00;99.90;;;;;;5048168;28;20994;-74
2022/04/14 06:59:22;;;;;;;22.17;13.00;;;14.00;99.90;;;;;;5042712;28;20472;-71
2022/04/14 07:01:48;;;;;;;18.60;12.30;;;14.00;99.90;;;;;;5050395;28;20460;-71
2022/04/14 07:04:15;;;;;;;17.07;12.83;;;14.00;99.90;;;;;;5045811;28;20917;-70
2022/04/14 07:06:43;;;;;;;21.20;13.90;;;14.10;99.90;;;;;;5041347;28;20457;-70
2022/04/14 07:09:10;;;;;;;24.17;13.80;;;14.10;99.90;;;;;;5035593;28;21023;-71
2022/04/14 07:11:37;;;;;;;24.97;12.10;;;14.10;99.90;;;;;;5045689;28;21011;-71
2022/04/14 07:14:04;;;;;;;31.90;13.07;;;14.10;99.90;;;;;;5050860;28;20491;-71
2022/04/14 07:16:31;;;;;;;22.37;12.63;;;14.20;99.90;;;;;;5037985;28;21141;-71
2022/04/14 07:18:58;;;;;;;14.17;10.60;;;14.20;99.90;;;;;;5033025;28;21005;-71
2022/04/14 07:21:24;;;;;;;17.93;12.00;;;14.30;99.90;;;;;;5049801;28;20457;-70
2022/04/14 07:23:52;;;;;;;19.00;10.80;;;14.30;99.90;;;;;;5050948;28;20451;-73
2022/04/14 07:26:19;;;;;;;18.70;12.53;;;14.40;99.90;;;;;;5042109;28;20808;-73
2022/04/14 07:28:46;;;;;;;21.10;12.20;;;14.40;99.90;;;;;;5033487;28;20481;-73
2022/04/14 07:31:13;;;;;;;20.93;13.07;;;14.40;99.90;;;;;;5037183;28;20461;-73
2022/04/14 07:33:41;;;;;;;21.07;11.67;;;14.40;99.90;;;;;;5036443;28;20488;-72
2022/04/14 07:36:08;;;;;;;22.27;11.33;;;14.40;99.90;;;;;;5049712;28;20452;-73
2022/04/14 07:38:35;;;;;;;18.43;11.60;;;14.40;99.90;;;;;;5044164;28;21012;-73
2022/04/14 07:41:05;;;;;;;17.10;12.10;;;14.40;99.90;;;;;;5035301;28;20461;-73
2022/04/14 07:43:32;;;;;;;25.90;12.50;;;14.40;99.90;;;;;;5038123;28;20519;-71
2022/04/14 07:45:59;;;;;;;19.53;12.47;;;14.50;99.90;;;;;;5031556;28;20445;-70
2022/04/14 07:48:25;;;;;;;18.60;11.10;;;14.50;99.90;;;;;;5038966;28;20463;-71
2022/04/14 07:50:52;;;;;;;15.10;12.00;;;14.50;99.90;;;;;;5047310;28;20508;-70
2022/04/14 07:53:19;;;;;;;20.10;11.23;;;14.50;99.90;;;;;;5029029;28;20529;-70
2022/04/14 07:55:46;;;;;;;20.40;12.30;;;14.40;99.90;;;;;;5030340;28;21141;-70
2022/04/14 07:58:14;;;;;;;21.03;12.73;;;14.40;99.90;;;;;;5031598;28;20829;-70
2022/04/14 08:00:41;;;;;;;18.33;12.43;;;14.40;99.90;;;;;;5046985;28;20431;-70
2022/04/14 08:03:09;;;;;;;20.70;13.57;;;14.40;99.90;;;;;;5048326;28;20456;-70
2022/04/14 08:05:37;;;;;;;24.80;13.30;;;14.40;99.90;;;;;;5042993;28;20950;-70
2022/04/14 08:08:06;;;;;;;29.13;14.47;;;14.40;99.90;;;;;;5030259;28;20432;-70
2022/04/14 08:10:33;;;;;;;21.30;12.50;;;14.40;99.90;;;;;;5028864;28;20725;-71
2022/04/14 08:13:00;;;;;;;19.33;11.50;;;14.50;99.90;;;;;;5043781;28;20797;-69
2022/04/14 08:15:30;;;;;;;16.53;11.33;;;14.50;99.90;;;;;;5048801;28;20460;-72
2022/04/14 08:17:57;;;;;;;27.03;12.10;;;14.50;99.90;;;;;;5031269;28;20964;-72
2022/04/14 08:20:24;;;;;;;17.30;10.70;;;14.60;99.90;;;;;;5032000;28;20518;-72
2022/04/14 08:22:53;;;;;;;22.30;10.90;;;14.60;99.90;;;;;;5036472;28;20448;-71
2022/04/14 08:25:22;;;;;;;17.27;9.13;;;14.70;99.90;;;;;;5049058;28;20427;-69
2022/04/14 08:27:50;;;;;;;13.50;8.80;;;14.70;99.90;;;;;;5047012;28;20813;-69
2022/04/14 08:30:17;;;;;;;16.50;9.00;;;14.80;99.90;;;;;;5040366;28;20508;-69
2022/04/14 08:32:46;;;;;;;12.40;9.33;;;14.80;99.90;;;;;;5039247;28;20840;-69
2022/04/14 08:35:14;;;;;;;14.67;9.60;;;14.80;99.90;;;;;;5043924;28;20559;-69
2022/04/14 08:37:41;;;;;;;18.73;9.93;;;14.80;99.90;;;;;;5034846;28;20452;-69
2022/04/14 08:40:10;;;;;;;15.63;9.88;;;14.80;99.90;;;;;;5051426;28;20453;-69
2022/04/14 08:42:39;;;;;;;16.97;11.93;;;14.90;99.90;;;;;;5036714;28;20639;-68
2022/04/14 08:45:08;;;;;;;19.80;11.60;;;14.80;99.90;;;;;;5039633;28;20455;-69
2022/04/14 08:47:37;;;;;;;16.33;11.50;;;14.80;99.90;;;;;;5046126;28;20449;-71
2022/04/14 08:50:06;;;;;;;13.53;10.67;;;14.70;99.90;;;;;;5051945;28;20883;-71
2022/04/14 08:52:34;;;;;;;15.03;10.83;;;14.70;99.90;;;;;;5040158;28;20456;-71
2022/04/14 08:55:04;;;;;;;14.67;10.87;;;14.70;99.90;;;;;;5050410;28;20490;-71
2022/04/14 08:57:32;;;;;;;14.93;10.30;;;14.70;99.90;;;;;;5035341;28;20461;-71
2022/04/14 09:00:00;;;;;;;19.53;11.43;;;14.70;99.90;;;;;;5032832;28;20529;-71
2022/04/14 09:02:28;;;;;;;17.50;11.80;;;14.80;99.90;;;;;;5044295;28;20485;-73
2022/04/14 09:04:56;;;;;;;16.70;12.03;;;14.90;99.90;;;;;;5033984;28;20455;-73
2022/04/14 09:07:25;;;;;;;18.33;13.10;;;14.90;99.90;;;;;;5042793;28;20464;-70
2022/04/14 09:09:52;;;;;;;21.80;13.30;;;14.90;99.90;;;;;;5034586;28;20507;-70
2022/04/14 09:12:19;;;;;;;22.20;14.30;;;14.90;99.90;;;;;;5049192;28;20547;-71
2022/04/14 09:14:46;;;;;;;23.53;13.83;;;14.90;99.90;;;;;;5043981;28;20347;-70
2022/04/14 09:17:13;;;;;;;23.73;13.80;;;14.90;99.90;;;;;;5039327;28;20465;-71
2022/04/14 09:19:41;;;;;;;26.27;16.00;;;14.90;99.90;;;;;;5038527;28;20468;-72
2022/04/14 09:22:10;;;;;;;26.27;15.30;;;14.90;99.90;;;;;;5051799;28;20423;-71
2022/04/14 09:24:43;;;;;;;22.90;14.43;;;14.80;99.90;;;;;;5033366;28;20839;-71
2022/04/14 09:27:24;;;;;;;25.43;15.77;;;14.80;99.90;;;;;;5042512;28;20452;-71
2022/04/14 09:29:51;;;;;;;24.27;14.90;;;14.80;99.90;;;;;;5052817;28;20475;-71
2022/04/14 09:32:30;;;;;;;20.87;14.60;;;14.90;99.90;;;;;;5038600;28;20428;-71
2022/04/14 09:34:58;;;;;;;25.07;14.17;;;14.80;99.90;;;;;;5045029;28;20490;-71
2022/04/14 09:37:26;;;;;;;21.20;14.50;;;14.80;99.90;;;;;;5033462;28;20458;-71
2022/04/14 09:39:56;;;;;;;26.00;15.00;;;14.80;99.90;;;;;;5038043;28;20502;-71
2022/04/14 09:42:23;;;;;;;21.57;14.10;;;14.80;99.90;;;;;;5044504;28;20458;-71
2022/04/14 09:44:50;;;;;;;22.20;14.77;;;14.90;99.90;;;;;;5048248;28;20456;-70
2022/04/14 09:47:39;;;;;;;23.00;13.90;;;14.80;99.90;;;;;;5037706;28;20438;-71
2022/04/14 09:50:22;;;;;;;25.83;14.13;;;14.90;99.90;;;;;;5043498;28;20895;-71
2022/04/14 09:53:06;;;;;;;22.17;13.10;;;14.90;99.90;;;;;;5044796;28;20819;-74
2022/04/14 09:55:35;;;;;;;22.67;13.70;;;15.00;99.90;;;;;;5044442;28;20576;-71
2022/04/14 09:58:13;;;;;;;18.93;11.07;;;15.10;99.90;;;;;;5041727;28;20446;-71
2022/04/14 10:00:42;;;;;;;16.67;10.97;;;15.20;99.90;;;;;;5043749;28;20535;-71
2022/04/14 10:03:14;;;;;;;13.40;10.20;;;15.40;99.90;;;;;;5045148;28;20457;-71
2022/04/14 10:05:41;;;;;;;14.10;10.10;;;15.40;99.90;;;;;;5039293;28;20470;-70
2022/04/14 10:08:09;;;;;;;15.33;9.80;;;15.60;99.90;;;;;;5036862;28;20503;-71
2022/04/14 10:10:39;;;;;;;12.00;8.40;;;15.70;99.90;;;;;;5040587;28;20468;-71
2022/04/14 10:13:07;;;;;;;14.63;8.70;;;15.80;99.90;;;;;;5035023;28;20508;-71
2022/04/14 10:15:36;;;;;;;11.50;7.73;;;15.90;99.90;;;;;;5034971;28;20967;-70
2022/04/14 10:18:07;;;;;;;8.77;7.13;;;15.90;99.90;;;;;;5037104;28;20478;-69
2022/04/14 10:20:35;;;;;;;8.03;6.83;;;16.00;99.90;;;;;;5034808;28;20983;-70
2022/04/14 10:23:02;;;;;;;10.10;6.37;;;16.10;99.90;;;;;;5036973;28;20457;-69
2022/04/14 10:25:30;;;;;;;8.53;6.00;;;16.30;99.90;;;;;;5042784;28;20441;-69
2022/04/14 10:28:00;;;;;;;10.50;6.27;;;16.50;99.90;;;;;;5037418;28;20514;-69
2022/04/14 10:30:27;;;;;;;10.50;6.77;;;16.70;99.90;;;;;;5038178;28;20447;-69
2022/04/14 10:32:56;;;;;;;9.20;6.43;;;17.00;99.90;;;;;;5039406;28;20445;-69
2022/04/14 10:35:24;;;;;;;9.53;6.40;;;17.20;99.90;;;;;;5033896;28;21070;-70
2022/04/14 10:37:56;;;;;;;12.40;7.37;;;17.40;99.90;;;;;;5045675;28;20430;-69
2022/04/14 10:40:23;;;;;;;8.40;6.80;;;17.80;99.90;;;;;;5039267;28;20459;-69
2022/04/14 10:42:54;;;;;;;10.60;7.80;;;18.00;99.90;;;;;;5038383;28;20426;-69
2022/04/14 10:45:23;;;;;;;14.90;7.70;;;18.10;99.90;;;;;;5036514;28;20443;-70
2022/04/14 10:47:58;;;;;;;7.87;5.70;;;18.10;99.90;;;;;;5044501;28;20467;-69
2022/04/14 10:50:26;;;;;;;12.77;6.80;;;18.10;99.90;;;;;;5034316;28;21035;-69
2022/04/14 10:53:12;;;;;;;9.30;5.50;;;17.70;99.90;;;;;;5037667;28;20426;-70
2022/04/14 10:55:41;;;;;;;6.20;5.10;;;17.50;99.90;;;;;;5037622;28;20483;-69
2022/04/14 10:58:28;;;;;;;7.10;5.40;;;17.20;99.90;;;;;;5034526;28;20444;-72
2022/04/14 11:00:57;;;;;;;9.43;5.93;;;17.20;99.90;;;;;;5036041;28;20452;-73
2022/04/14 11:03:45;;;;;;;9.97;5.27;;;17.10;99.90;;;;;;5039846;28;20514;-72
2022/04/14 11:06:51;;;;;;;7.50;5.43;;;17.00;99.90;;;;;;5034467;28;20446;-70
2022/04/14 11:09:47;;;;;;;11.20;5.23;;;17.00;99.90;;;;;;5045401;28;20472;-70
2022/04/14 11:12:16;;;;;;;6.50;4.83;;;17.00;99.90;;;;;;5043388;28;20448;-69
2022/04/14 11:14:53;;;;;;;5.53;4.80;;;17.10;99.90;;;;;;5040427;28;20499;-71
2022/04/14 11:17:58;;;;;;;6.07;4.80;;;17.10;99.90;;;;;;5033789;28;20870;-74
2022/04/14 11:20:54;;;;;;;8.97;5.77;;;17.10;99.90;;;;;;5041969;28;20486;-72
2022/04/14 11:23:24;;;;;;;6.70;5.20;;;17.30;99.90;;;;;;5035751;28;20431;-72
2022/04/14 11:25:52;;;;;;;7.47;4.90;;;17.40;99.90;;;;;;5037814;28;20499;-73
2022/04/14 11:28:25;;;;;;;7.93;5.40;;;17.40;99.90;;;;;;5034691;28;20451;-73
2022/04/14 11:30:53;;;;;;;8.10;5.03;;;17.50;99.90;;;;;;5033516;28;20987;-72
2022/04/14 11:33:27;;;;;;;6.63;5.03;;;17.60;99.90;;;;;;5040845;28;20536;-70
2022/04/14 11:36:11;;;;;;;7.13;4.87;;;17.80;99.90;;;;;;5040395;28;20955;-71
2022/04/14 11:38:54;;;;;;;5.30;4.77;;;17.90;99.90;;;;;;5045023;28;20950;-70
2022/04/14 11:41:39;;;;;;;7.37;6.07;;;17.90;99.90;;;;;;5036267;28;21004;-70
2022/04/14 11:44:08;;;;;;;7.43;5.53;;;18.00;99.90;;;;;;5035187;28;20419;-70
2022/04/14 11:46:37;;;;;;;6.90;5.40;;;18.10;99.90;;;;;;5033818;28;20453;-70
2022/04/14 11:49:04;;;;;;;6.60;5.10;;;18.00;99.90;;;;;;5034214;28;20559;-70
2022/04/14 11:51:32;;;;;;;8.07;5.40;;;18.00;99.90;;;;;;5041657;28;20462;-71
2022/04/14 11:53:59;;;;;;;8.10;5.77;;;18.00;99.90;;;;;;5038151;28;20435;-70
2022/04/14 11:56:26;;;;;;;7.30;5.63;;;18.10;99.90;;;;;;5039808;28;20460;-71
2022/04/14 11:58:54;;;;;;;13.53;5.77;;;18.30;99.90;;;;;;5034060;28;20497;-71
2022/04/14 12:01:22;;;;;;;8.53;6.10;;;18.50;99.90;;;;;;5042002;28;20822;-71
2022/04/14 12:03:48;;;;;;;7.40;5.60;;;18.70;99.90;;;;;;5032439;28;20478;-71
2022/04/14 12:06:17;;;;;;;8.67;6.10;;;18.80;99.90;;;;;;5038978;28;20540;-70
2022/04/14 12:08:53;;;;;;;7.70;5.97;;;18.70;99.90;;;;;;5040996;28;20951;-70
2022/04/14 12:11:20;;;;;;;8.37;5.43;;;18.60;99.90;;;;;;5046098;28;20427;-72
2022/04/14 12:13:47;;;;;;;6.50;5.53;;;18.50;99.90;;;;;;5034625;28;21012;-70
2022/04/14 12:16:15;;;;;;;7.80;5.87;;;18.50;99.90;;;;;;5041730;28;21008;-71
2022/04/14 12:18:48;;;;;;;8.13;5.60;;;18.60;99.90;;;;;;5042771;28;20525;-70
2022/04/14 12:21:19;;;;;;;9.63;5.93;;;18.80;99.90;;;;;;5046643;28;20503;-70
2022/04/14 12:23:52;;;;;;;8.67;5.97;;;18.80;99.90;;;;;;5043549;28;20495;-70
2022/04/14 12:26:19;;;;;;;10.00;6.80;;;18.50;99.90;;;;;;5047207;28;20451;-70
2022/04/14 12:28:48;;;;;;;10.17;6.57;;;18.30;99.90;;;;;;5044398;28;20830;-70
2022/04/14 12:31:16;;;;;;;7.90;6.07;;;18.20;99.90;;;;;;5046939;28;20539;-70
2022/04/14 12:33:54;;;;;;;9.80;6.00;;;18.10;99.90;;;;;;5041442;28;20462;-70
2022/04/14 12:36:21;;;;;;;6.70;5.40;;;18.00;99.90;;;;;;5041402;28;20555;-70
2022/04/14 12:38:48;;;;;;;7.90;6.30;;;18.00;99.90;;;;;;5045146;28;21021;-72